sensor_id;sensor_type;location;lat;lon;timestamp;pressure;altitude;pressure_sealevel;temperature;humidity
41513;BME280;27244;59.940;30.280;2023-11-21T00:00:35;101756.44;;;23.46;29.11
41513;BME280;27244;59.940;30.280;2023-11-21T00:03:03;101759.25;;;23.46;28.99
41513;BME280;27244;59.940;30.280;2023-11-21T00:05:31;101755.63;;;23.45;28.85
41513;BME280;27244;59.940;30.280;2023-11-21T00:07:58;101759.25;;;23.46;28.74
41513;BME280;27244;59.940;30.280;2023-11-21T00:10:25;101744.81;;;23.44;28.78
41513;BME280;27244;59.940;30.280;2023-11-21T00:12:53;101757.66;;;23.45;28.74
41513;BME280;27244;59.940;30.280;2023-11-21T00:15:20;101756.06;;;23.44;28.49
41513;BME280;27244;59.940;30.280;2023-11-21T00:17:48;101751.66;;;23.43;28.60
41513;BME280;27244;59.940;30.280;2023-11-21T00:20:15;101755.66;;;23.42;28.47
41513;BME280;27244;59.940;30.280;2023-11-21T00:22:43;101750.84;;;23.42;28.51
41513;BME280;27244;59.940;30.280;2023-11-21T00:25:10;101759.66;;;23.41;28.60
41513;BME280;27244;59.940;30.280;2023-11-21T00:27:38;101753.25;;;23.40;28.59
41513;BME280;27244;59.940;30.280;2023-11-21T00:30:05;101762.91;;;23.39;28.59
41513;BME280;27244;59.940;30.280;2023-11-21T00:32:33;101769.34;;;23.40;28.50
41513;BME280;27244;59.940;30.280;2023-11-21T00:34:59;101761.31;;;23.38;28.33
41513;BME280;27244;59.940;30.280;2023-11-21T00:37:27;101768.53;;;23.39;28.51
41513;BME280;27244;59.940;30.280;2023-11-21T00:39:56;101766.94;;;23.38;28.27
41513;BME280;27244;59.940;30.280;2023-11-21T00:42:22;101766.13;;;23.38;28.27
41513;BME280;27244;59.940;30.280;2023-11-21T00:44:50;101764.53;;;23.37;28.38
41513;BME280;27244;59.940;30.280;2023-11-21T00:47:17;101765.34;;;23.37;28.34
41513;BME280;27244;59.940;30.280;2023-11-21T00:49:43;101772.97;;;23.37;28.26
41513;BME280;27244;59.940;30.280;2023-11-21T00:52:10;101771.75;;;23.38;28.24
41513;BME280;27244;59.940;30.280;2023-11-21T00:54:37;101778.59;;;23.37;28.06
41513;BME280;27244;59.940;30.280;2023-11-21T00:57:05;101780.66;;;23.36;28.12
41513;BME280;27244;59.940;30.280;2023-11-21T00:59:33;101777.03;;;23.36;28.08
41513;BME280;27244;59.940;30.280;2023-11-21T01:02:03;101787.06;;;23.37;28.12
41513;BME280;27244;59.940;30.280;2023-11-21T01:04:30;101782.66;;;23.36;28.13
41513;BME280;27244;59.940;30.280;2023-11-21T01:06:58;101783.88;;;23.35;28.05
41513;BME280;27244;59.940;30.280;2023-11-21T01:09:25;101785.88;;;23.34;28.07
41513;BME280;27244;59.940;30.280;2023-11-21T01:11:53;101788.69;;;23.34;28.19
41513;BME280;27244;59.940;30.280;2023-11-21T01:14:21;101787.09;;;23.33;27.87
41513;BME280;27244;59.940;30.280;2023-11-21T01:16:48;101784.28;;;23.33;27.83
41513;BME280;27244;59.940;30.280;2023-11-21T01:19:15;101787.53;;;23.32;27.87
41513;BME280;27244;59.940;30.280;2023-11-21T01:21:42;101787.53;;;23.32;27.91
41513;BME280;27244;59.940;30.280;2023-11-21T01:24:08;101794.38;;;23.31;27.71
41513;BME280;27244;59.940;30.280;2023-11-21T01:26:35;101795.16;;;23.31;27.71
41513;BME280;27244;59.940;30.280;2023-11-21T01:29:02;101800.78;;;23.31;27.76
41513;BME280;27244;59.940;30.280;2023-11-21T01:31:31;101794.38;;;23.31;27.80
41513;BME280;27244;59.940;30.280;2023-11-21T01:33:58;101793.56;;;23.30;27.62
41513;BME280;27244;59.940;30.280;2023-11-21T01:36:29;101788.72;;;23.31;27.78
41513;BME280;27244;59.940;30.280;2023-11-21T01:38:57;101794.38;;;23.31;27.64
41513;BME280;27244;59.940;30.280;2023-11-21T01:41:24;101795.56;;;23.30;27.43
41513;BME280;27244;59.940;30.280;2023-11-21T01:43:52;101798.38;;;23.30;27.71
41513;BME280;27244;59.940;30.280;2023-11-21T01:46:19;101798.38;;;23.30;27.45
41513;BME280;27244;59.940;30.280;2023-11-21T01:48:47;101800.44;;;23.29;27.51
41513;BME280;27244;59.940;30.280;2023-11-21T01:51:15;101799.63;;;23.29;27.40
41513;BME280;27244;59.940;30.280;2023-11-21T01:53:43;101802.44;;;23.29;27.47
41513;BME280;27244;59.940;30.280;2023-11-21T01:56:12;101799.63;;;23.29;27.43
41513;BME280;27244;59.940;30.280;2023-11-21T01:58:39;101794.41;;;23.27;27.34
41513;BME280;27244;59.940;30.280;2023-11-21T02:01:06;101803.66;;;23.28;27.43
41513;BME280;27244;59.940;30.280;2023-11-21T02:03:32;101800.81;;;23.28;27.44
41513;BME280;27244;59.940;30.280;2023-11-21T02:06:01;101802.84;;;23.27;27.52
41513;BME280;27244;59.940;30.280;2023-11-21T02:08:28;101811.28;;;23.27;27.35
41513;BME280;27244;59.940;30.280;2023-11-21T02:10:54;101814.09;;;23.27;27.41
41513;BME280;27244;59.940;30.280;2023-11-21T02:13:23;101807.66;;;23.27;27.38
41513;BME280;27244;59.940;30.280;2023-11-21T02:15:49;101808.91;;;23.26;27.20
41513;BME280;27244;59.940;30.280;2023-11-21T02:18:19;101814.53;;;23.26;27.29
41513;BME280;27244;59.940;30.280;2023-11-21T02:20:47;101815.31;;;23.26;27.18
41513;BME280;27244;59.940;30.280;2023-11-21T02:23:15;101815.75;;;23.25;27.09
41513;BME280;27244;59.940;30.280;2023-11-21T02:25:43;101817.75;;;23.24;27.00
41513;BME280;27244;59.940;30.280;2023-11-21T02:28:09;101813.72;;;23.25;27.15
41513;BME280;27244;59.940;30.280;2023-11-21T02:30:38;101815.75;;;23.25;27.00
41513;BME280;27244;59.940;30.280;2023-11-21T02:33:04;101817.75;;;23.24;27.09
41513;BME280;27244;59.940;30.280;2023-11-21T02:35:32;101821.38;;;23.25;26.96
41513;BME280;27244;59.940;30.280;2023-11-21T02:38:00;101822.56;;;23.24;26.97
41513;BME280;27244;59.940;30.280;2023-11-21T02:40:28;101825.41;;;23.24;27.10
41513;BME280;27244;59.940;30.280;2023-11-21T02:42:55;101821.38;;;23.25;26.96
41513;BME280;27244;59.940;30.280;2023-11-21T02:45:24;101818.16;;;23.23;27.07
41513;BME280;27244;59.940;30.280;2023-11-21T02:47:51;101821.78;;;23.23;26.83
41513;BME280;27244;59.940;30.280;2023-11-21T02:50:22;101825.81;;;23.22;26.75
41513;BME280;27244;59.940;30.280;2023-11-21T02:52:49;101823.00;;;23.22;26.90
41513;BME280;27244;59.940;30.280;2023-11-21T02:55:16;101820.97;;;23.23;26.95
41513;BME280;27244;59.940;30.280;2023-11-21T02:57:44;101814.97;;;23.21;26.87
41513;BME280;27244;59.940;30.280;2023-11-21T03:00:11;101819.41;;;23.22;26.74
41513;BME280;27244;59.940;30.280;2023-11-21T03:02:40;101830.66;;;23.22;26.77
41513;BME280;27244;59.940;30.280;2023-11-21T03:05:07;101827.84;;;23.22;26.83
41513;BME280;27244;59.940;30.280;2023-11-21T03:07:35;101839.09;;;23.22;26.66
41513;BME280;27244;59.940;30.280;2023-11-21T03:10:01;101841.09;;;23.21;26.75
41513;BME280;27244;59.940;30.280;2023-11-21T03:12:32;101839.50;;;23.20;26.62
41513;BME280;27244;59.940;30.280;2023-11-21T03:15:00;101843.13;;;23.21;26.70
41513;BME280;27244;59.940;30.280;2023-11-21T03:17:27;101835.47;;;23.21;26.62
41513;BME280;27244;59.940;30.280;2023-11-21T03:19:57;101844.31;;;23.20;26.69
41513;BME280;27244;59.940;30.280;2023-11-21T03:22:24;101836.69;;;23.20;26.59
41513;BME280;27244;59.940;30.280;2023-11-21T03:24:51;101838.69;;;23.20;26.42
41513;BME280;27244;59.940;30.280;2023-11-21T03:27:17;101842.31;;;23.20;26.53
41513;BME280;27244;59.940;30.280;2023-11-21T03:29:44;101856.81;;;23.19;26.69
41513;BME280;27244;59.940;30.280;2023-11-21T03:32:13;101863.22;;;23.19;26.65
41513;BME280;27244;59.940;30.280;2023-11-21T03:34:53;101861.66;;;23.18;26.58
41513;BME280;27244;59.940;30.280;2023-11-21T03:37:20;101856.81;;;23.19;26.58
41513;BME280;27244;59.940;30.280;2023-11-21T03:39:49;101855.22;;;23.18;26.57
41513;BME280;27244;59.940;30.280;2023-11-21T03:42:25;101860.84;;;23.18;26.45
41513;BME280;27244;59.940;30.280;2023-11-21T03:44:55;101864.88;;;23.17;26.35
41513;BME280;27244;59.940;30.280;2023-11-21T03:47:23;101862.03;;;23.17;26.37
41513;BME280;27244;59.940;30.280;2023-11-21T03:49:53;101858.44;;;23.16;26.42
41513;BME280;27244;59.940;30.280;2023-11-21T03:52:22;101865.66;;;23.17;26.38
41513;BME280;27244;59.940;30.280;2023-11-21T03:54:51;101854.81;;;23.16;26.22
41513;BME280;27244;59.940;30.280;2023-11-21T03:57:20;101856.81;;;23.15;26.46
41513;BME280;27244;59.940;30.280;2023-11-21T03:59:47;101856.81;;;23.15;26.64
41513;BME280;27244;59.940;30.280;2023-11-21T04:02:14;101858.88;;;23.15;26.45
41513;BME280;27244;59.940;30.280;2023-11-21T04:04:42;101866.06;;;23.16;26.38
41513;BME280;27244;59.940;30.280;2023-11-21T04:07:09;101871.69;;;23.16;26.23
41513;BME280;27244;59.940;30.280;2023-11-21T04:09:36;101864.91;;;23.13;26.33
41513;BME280;27244;59.940;30.280;2023-11-21T04:12:06;101870.13;;;23.15;26.16
41513;BME280;27244;59.940;30.280;2023-11-21T04:14:34;101875.75;;;23.15;26.16
41513;BME280;27244;59.940;30.280;2023-11-21T04:17:01;101877.75;;;23.14;26.19
41513;BME280;27244;59.940;30.280;2023-11-21T04:19:29;101880.56;;;23.14;26.04
41513;BME280;27244;59.940;30.280;2023-11-21T04:21:57;101879.78;;;23.14;26.27
41513;BME280;27244;59.940;30.280;2023-11-21T04:24:24;101880.56;;;23.14;26.09
41513;BME280;27244;59.940;30.280;2023-11-21T04:26:53;101891.03;;;23.14;26.19
41513;BME280;27244;59.940;30.280;2023-11-21T04:29:19;101898.66;;;23.13;26.17
41513;BME280;27244;59.940;30.280;2023-11-21T04:31:46;101904.28;;;23.13;26.07
41513;BME280;27244;59.940;30.280;2023-11-21T04:34:16;101907.09;;;23.13;26.05
41513;BME280;27244;59.940;30.280;2023-11-21T04:36:43;101915.56;;;23.13;26.10
41513;BME280;27244;59.940;30.280;2023-11-21T04:39:11;101918.78;;;23.12;26.00
41513;BME280;27244;59.940;30.280;2023-11-21T04:41:38;101931.63;;;23.13;25.95
41513;BME280;27244;59.940;30.280;2023-11-21T04:44:05;101934.44;;;23.13;25.94
41513;BME280;27244;59.940;30.280;2023-11-21T04:46:32;101937.69;;;23.11;26.00
41513;BME280;27244;59.940;30.280;2023-11-21T04:48:59;101943.31;;;23.11;25.86
41513;BME280;27244;59.940;30.280;2023-11-21T04:51:30;101932.06;;;23.11;25.98
41513;BME280;27244;59.940;30.280;2023-11-21T04:53:57;101925.63;;;23.11;25.82
41513;BME280;27244;59.940;30.280;2023-11-21T04:56:26;101938.09;;;23.10;25.98
41513;BME280;27244;59.940;30.280;2023-11-21T04:58:57;101938.09;;;23.10;25.80
41513;BME280;27244;59.940;30.280;2023-11-21T05:01:24;101944.94;;;23.09;25.78
41513;BME280;27244;59.940;30.280;2023-11-21T05:03:53;101943.34;;;23.08;25.81
41513;BME280;27244;59.940;30.280;2023-11-21T05:06:22;101941.31;;;23.08;25.74
41513;BME280;27244;59.940;30.280;2023-11-21T05:08:56;101948.97;;;23.08;25.80
41513;BME280;27244;59.940;30.280;2023-11-21T05:11:24;101936.09;;;23.07;25.78
41513;BME280;27244;59.940;30.280;2023-11-21T05:13:52;101942.53;;;23.07;25.72
41513;BME280;27244;59.940;30.280;2023-11-21T05:16:21;101934.50;;;23.05;25.74
41513;BME280;27244;59.940;30.280;2023-11-21T05:18:48;101940.13;;;23.05;25.68
41513;BME280;27244;59.940;30.280;2023-11-21T05:21:15;101942.94;;;23.05;25.61
41513;BME280;27244;59.940;30.280;2023-11-21T05:23:42;101947.38;;;23.03;25.62
41513;BME280;27244;59.940;30.280;2023-11-21T05:26:09;101949.00;;;23.04;25.66
41513;BME280;27244;59.940;30.280;2023-11-21T05:28:36;101953.81;;;23.03;25.58
41513;BME280;27244;59.940;30.280;2023-11-21T05:31:04;101955.03;;;23.02;25.63
41513;BME280;27244;59.940;30.280;2023-11-21T05:33:31;101962.66;;;23.02;25.71
41513;BME280;27244;59.940;30.280;2023-11-21T05:35:58;101971.91;;;23.02;25.53
41513;BME280;27244;59.940;30.280;2023-11-21T05:38:25;101969.09;;;23.02;25.56
41513;BME280;27244;59.940;30.280;2023-11-21T05:40:52;101963.47;;;23.02;25.58
41513;BME280;27244;59.940;30.280;2023-11-21T05:43:19;101970.31;;;23.01;25.49
41513;BME280;27244;59.940;30.280;2023-11-21T05:45:46;101973.91;;;23.02;25.67
41513;BME280;27244;59.940;30.280;2023-11-21T05:48:17;101975.94;;;23.01;25.48
41513;BME280;27244;59.940;30.280;2023-11-21T05:50:50;101980.34;;;23.02;25.60
41513;BME280;27244;59.940;30.280;2023-11-21T05:53:18;101982.38;;;23.02;25.60
41513;BME280;27244;59.940;30.280;2023-11-21T05:55:45;101983.16;;;23.02;25.55
41513;BME280;27244;59.940;30.280;2023-11-21T05:58:12;101988.41;;;23.04;25.75
41513;BME280;27244;59.940;30.280;2023-11-21T06:00:39;101989.19;;;23.04;25.68
41513;BME280;27244;59.940;30.280;2023-11-21T06:03:06;101991.22;;;23.04;25.77
41513;BME280;27244;59.940;30.280;2023-11-21T06:05:34;101999.22;;;23.05;25.68
41513;BME280;27244;59.940;30.280;2023-11-21T06:08:04;102006.88;;;23.05;25.81
41513;BME280;27244;59.940;30.280;2023-11-21T06:10:31;102009.28;;;23.07;25.92
41513;BME280;27244;59.940;30.280;2023-11-21T06:12:59;102010.09;;;23.07;25.72
41513;BME280;27244;59.940;30.280;2023-11-21T06:15:29;102019.34;;;23.08;26.03
41513;BME280;27244;59.940;30.280;2023-11-21T06:17:56;102022.16;;;23.08;25.91
41513;BME280;27244;59.940;30.280;2023-11-21T06:20:24;102028.16;;;23.10;25.90
41513;BME280;27244;59.940;30.280;2023-11-21T06:22:52;102021.72;;;23.09;26.09
41513;BME280;27244;59.940;30.280;2023-11-21T06:25:19;102030.97;;;23.10;26.20
41513;BME280;27244;59.940;30.280;2023-11-21T06:27:46;102025.34;;;23.10;26.22
41513;BME280;27244;59.940;30.280;2023-11-21T06:30:14;102038.22;;;23.11;26.34
41513;BME280;27244;59.940;30.280;2023-11-21T06:32:41;102035.41;;;23.11;26.38
41513;BME280;27244;59.940;30.280;2023-11-21T06:35:11;102049.84;;;23.13;26.32
41513;BME280;27244;59.940;30.280;2023-11-21T06:37:38;102052.66;;;23.13;26.39
41513;BME280;27244;59.940;30.280;2023-11-21T06:40:07;102047.03;;;23.13;26.41
41513;BME280;27244;59.940;30.280;2023-11-21T06:42:35;102048.66;;;23.14;26.47
41513;BME280;27244;59.940;30.280;2023-11-21T06:45:04;102055.09;;;23.14;26.49
41513;BME280;27244;59.940;30.280;2023-11-21T06:47:36;102053.47;;;23.13;26.54
41513;BME280;27244;59.940;30.280;2023-11-21T06:50:06;102065.53;;;23.14;26.54
41513;BME280;27244;59.940;30.280;2023-11-21T06:52:33;102064.34;;;23.15;26.79
41513;BME280;27244;59.940;30.280;2023-11-21T06:55:00;102067.94;;;23.15;26.81
41513;BME280;27244;59.940;30.280;2023-11-21T06:57:32;102068.75;;;23.16;26.59
41513;BME280;27244;59.940;30.280;2023-11-21T07:00:04;102065.91;;;23.16;26.85
41513;BME280;27244;59.940;30.280;2023-11-21T07:02:34;102068.75;;;23.16;26.90
41513;BME280;27244;59.940;30.280;2023-11-21T07:05:04;102068.75;;;23.16;26.95
41513;BME280;27244;59.940;30.280;2023-11-21T07:07:31;102069.53;;;23.16;26.99
41513;BME280;27244;59.940;30.280;2023-11-21T07:10:00;102085.22;;;23.17;27.16
41513;BME280;27244;59.940;30.280;2023-11-21T07:12:29;102077.59;;;23.18;27.05
41513;BME280;27244;59.940;30.280;2023-11-21T07:15:00;102079.22;;;23.19;27.18
41513;BME280;27244;59.940;30.280;2023-11-21T07:17:28;102074.34;;;23.19;27.33
41513;BME280;27244;59.940;30.280;2023-11-21T07:19:54;102077.97;;;23.20;27.24
41513;BME280;27244;59.940;30.280;2023-11-21T07:22:24;102083.59;;;23.20;27.45
41513;BME280;27244;59.940;30.280;2023-11-21T07:24:53;102077.56;;;23.21;27.32
41513;BME280;27244;59.940;30.280;2023-11-21T07:27:22;102086.81;;;23.22;27.49
41513;BME280;27244;59.940;30.280;2023-11-21T07:29:51;102090.03;;;23.24;27.73
41513;BME280;27244;59.940;30.280;2023-11-21T07:32:21;102090.44;;;23.22;27.74
41513;BME280;27244;59.940;30.280;2023-11-21T07:34:48;102090.03;;;23.24;27.85
41513;BME280;27244;59.940;30.280;2023-11-21T07:37:15;102093.66;;;23.24;27.90
41513;BME280;27244;59.940;30.280;2023-11-21T07:39:42;102096.06;;;23.26;27.77
41513;BME280;27244;59.940;30.280;2023-11-21T07:42:09;102103.28;;;23.27;28.07
41513;BME280;27244;59.940;30.280;2023-11-21T07:44:39;102098.44;;;23.27;28.10
41513;BME280;27244;59.940;30.280;2023-11-21T07:47:06;102100.47;;;23.27;28.11
41513;BME280;27244;59.940;30.280;2023-11-21T07:49:34;102109.72;;;23.27;28.20
41513;BME280;27244;59.940;30.280;2023-11-21T07:52:01;102107.72;;;23.28;28.11
41513;BME280;27244;59.940;30.280;2023-11-21T07:54:29;102106.50;;;23.29;28.13
41513;BME280;27244;59.940;30.280;2023-11-21T07:56:55;102113.72;;;23.30;28.32
41513;BME280;27244;59.940;30.280;2023-11-21T07:59:22;102107.31;;;23.29;28.40
41513;BME280;27244;59.940;30.280;2023-11-21T08:01:49;102110.91;;;23.30;28.28
41513;BME280;27244;59.940;30.280;2023-11-21T08:04:16;102115.31;;;23.31;28.50
41513;BME280;27244;59.940;30.280;2023-11-21T08:06:45;102112.91;;;23.33;28.69
41513;BME280;27244;59.940;30.280;2023-11-21T08:09:12;102108.06;;;23.33;28.69
41513;BME280;27244;59.940;30.280;2023-11-21T08:11:38;102115.75;;;23.33;28.86
41513;BME280;27244;59.940;30.280;2023-11-21T08:14:08;102111.28;;;23.35;28.98
41513;BME280;27244;59.940;30.280;2023-11-21T08:16:38;102109.69;;;23.34;29.05
41513;BME280;27244;59.940;30.280;2023-11-21T08:19:05;102107.28;;;23.36;29.08
41513;BME280;27244;59.940;30.280;2023-11-21T08:21:31;102106.84;;;23.38;28.92
41513;BME280;27244;59.940;30.280;2023-11-21T08:23:59;102104.03;;;23.38;29.01
41513;BME280;27244;59.940;30.280;2023-11-21T08:26:27;102108.47;;;23.39;29.14
41513;BME280;27244;59.940;30.280;2023-11-21T08:28:54;102100.41;;;23.37;29.33
41513;BME280;27244;59.940;30.280;2023-11-21T08:31:25;102106.44;;;23.39;29.26
41513;BME280;27244;59.940;30.280;2023-11-21T08:33:51;102104.44;;;23.40;29.32
41513;BME280;27244;59.940;30.280;2023-11-21T08:36:21;102104.44;;;23.40;29.22
41513;BME280;27244;59.940;30.280;2023-11-21T08:38:49;102110.88;;;23.40;29.38
41513;BME280;27244;59.940;30.280;2023-11-21T08:41:18;102108.84;;;23.41;29.33
41513;BME280;27244;59.940;30.280;2023-11-21T08:43:47;102106.03;;;23.41;29.45
41513;BME280;27244;59.940;30.280;2023-11-21T08:46:14;102106.03;;;23.41;29.44
41513;BME280;27244;59.940;30.280;2023-11-21T08:48:42;102106.84;;;23.41;29.54
41513;BME280;27244;59.940;30.280;2023-11-21T08:51:09;102113.69;;;23.40;29.40
41513;BME280;27244;59.940;30.280;2023-11-21T08:53:37;102104.84;;;23.42;29.35
41513;BME280;27244;59.940;30.280;2023-11-21T08:56:04;102110.06;;;23.47;29.42
41513;BME280;27244;59.940;30.280;2023-11-21T08:58:32;102111.66;;;23.48;29.56
41513;BME280;27244;59.940;30.280;2023-11-21T09:01:05;102106.00;;;23.48;29.49
41513;BME280;27244;59.940;30.280;2023-11-21T09:03:32;102106.84;;;23.45;29.69
41513;BME280;27244;59.940;30.280;2023-11-21T09:06:00;102110.47;;;23.45;29.74
41513;BME280;27244;59.940;30.280;2023-11-21T09:08:27;102118.09;;;23.45;29.64
41513;BME280;27244;59.940;30.280;2023-11-21T09:10:58;102114.88;;;23.50;29.53
41513;BME280;27244;59.940;30.280;2023-11-21T09:13:27;102114.88;;;23.50;29.57
41513;BME280;27244;59.940;30.280;2023-11-21T09:15:57;102113.25;;;23.52;29.56
41513;BME280;27244;59.940;30.280;2023-11-21T09:18:25;102112.44;;;23.52;29.59
41513;BME280;27244;59.940;30.280;2023-11-21T09:20:51;102113.25;;;23.52;29.69
41513;BME280;27244;59.940;30.280;2023-11-21T09:23:21;102110.44;;;23.52;29.69
41513;BME280;27244;59.940;30.280;2023-11-21T09:25:47;102112.03;;;23.53;29.72
41513;BME280;27244;59.940;30.280;2023-11-21T09:28:15;102111.22;;;23.53;29.69
41513;BME280;27244;59.940;30.280;2023-11-21T09:30:42;102114.84;;;23.53;29.68
41513;BME280;27244;59.940;30.280;2023-11-21T09:33:11;102110.03;;;23.54;29.80
41513;BME280;27244;59.940;30.280;2023-11-21T09:35:37;102115.66;;;23.54;29.72
41513;BME280;27244;59.940;30.280;2023-11-21T09:38:04;102108.00;;;23.55;29.80
41513;BME280;27244;59.940;30.280;2023-11-21T09:40:35;102108.78;;;23.55;29.86
41513;BME280;27244;59.940;30.280;2023-11-21T09:43:03;102117.66;;;23.57;29.84
41513;BME280;27244;59.940;30.280;2023-11-21T09:45:34;102120.47;;;23.57;29.93
41513;BME280;27244;59.940;30.280;2023-11-21T09:48:04;102110.00;;;23.58;29.85
41513;BME280;27244;59.940;30.280;2023-11-21T09:50:36;102118.47;;;23.58;29.78
41513;BME280;27244;59.940;30.280;2023-11-21T09:53:06;102117.66;;;23.57;29.73
41513;BME280;27244;59.940;30.280;2023-11-21T09:55:40;102119.25;;;23.58;29.86
41513;BME280;27244;59.940;30.280;2023-11-21T09:58:09;102118.47;;;23.58;30.00
41513;BME280;27244;59.940;30.280;2023-11-21T10:00:38;102113.63;;;23.58;29.93
41513;BME280;27244;59.940;30.280;2023-11-21T10:03:06;102110.41;;;23.56;29.98
41513;BME280;27244;59.940;30.280;2023-11-21T10:05:33;102115.22;;;23.56;30.01
41513;BME280;27244;59.940;30.280;2023-11-21T10:08:02;102128.13;;;23.57;29.98
41513;BME280;27244;59.940;30.280;2023-11-21T10:10:29;102129.72;;;23.58;30.13
41513;BME280;27244;59.940;30.280;2023-11-21T10:13:00;102125.69;;;23.55;30.23
41513;BME280;27244;59.940;30.280;2023-11-21T10:15:28;102134.94;;;23.56;30.09
41513;BME280;27244;59.940;30.280;2023-11-21T10:18:00;102132.13;;;23.56;30.18
41513;BME280;27244;59.940;30.280;2023-11-21T10:20:28;102131.31;;;23.55;30.10
41513;BME280;27244;59.940;30.280;2023-11-21T10:22:55;102131.31;;;23.55;30.09
41513;BME280;27244;59.940;30.280;2023-11-21T10:25:30;102130.13;;;23.56;30.24
41513;BME280;27244;59.940;30.280;2023-11-21T10:27:58;102132.13;;;23.56;30.14
41513;BME280;27244;59.940;30.280;2023-11-21T10:30:31;102142.19;;;23.57;30.15
41513;BME280;27244;59.940;30.280;2023-11-21T10:33:02;102138.56;;;23.56;30.24
41513;BME280;27244;59.940;30.280;2023-11-21T10:35:38;102138.56;;;23.56;30.24
41513;BME280;27244;59.940;30.280;2023-11-21T10:38:05;102136.56;;;23.57;30.19
41513;BME280;27244;59.940;30.280;2023-11-21T10:40:38;102140.19;;;23.57;30.34
41513;BME280;27244;59.940;30.280;2023-11-21T10:43:08;102133.75;;;23.57;30.22
41513;BME280;27244;59.940;30.280;2023-11-21T10:45:36;102138.19;;;23.58;30.40
41513;BME280;27244;59.940;30.280;2023-11-21T10:48:05;102138.97;;;23.58;30.38
41513;BME280;27244;59.940;30.280;2023-11-21T10:50:35;102146.19;;;23.59;30.62
41513;BME280;27244;59.940;30.280;2023-11-21T10:53:03;102147.00;;;23.60;30.42
41513;BME280;27244;59.940;30.280;2023-11-21T10:55:30;102157.06;;;23.61;30.50
41513;BME280;27244;59.940;30.280;2023-11-21T10:58:02;102153.03;;;23.62;30.66
41513;BME280;27244;59.940;30.280;2023-11-21T11:00:30;102155.88;;;23.62;30.58
41513;BME280;27244;59.940;30.280;2023-11-21T11:02:57;102153.84;;;23.62;30.75
41513;BME280;27244;59.940;30.280;2023-11-21T11:05:25;102155.44;;;23.63;30.72
41513;BME280;27244;59.940;30.280;2023-11-21T11:07:56;102159.06;;;23.64;30.84
41513;BME280;27244;59.940;30.280;2023-11-21T11:10:25;102164.31;;;23.65;30.70
41513;BME280;27244;59.940;30.280;2023-11-21T11:12:53;102151.41;;;23.64;30.93
41513;BME280;27244;59.940;30.280;2023-11-21T11:15:22;102159.47;;;23.66;30.84
41513;BME280;27244;59.940;30.280;2023-11-21T11:17:49;102155.84;;;23.65;30.95
41513;BME280;27244;59.940;30.280;2023-11-21T11:20:16;102162.69;;;23.64;30.99
41513;BME280;27244;59.940;30.280;2023-11-21T11:22:47;102156.25;;;23.64;31.05
41513;BME280;27244;59.940;30.280;2023-11-21T11:25:26;102150.59;;;23.64;30.97
41513;BME280;27244;59.940;30.280;2023-11-21T11:27:56;102150.59;;;23.64;30.93
41513;BME280;27244;59.940;30.280;2023-11-21T11:30:31;102149.81;;;23.63;31.11
41513;BME280;27244;59.940;30.280;2023-11-21T11:33:05;102149.81;;;23.63;31.15
41513;BME280;27244;59.940;30.280;2023-11-21T11:35:38;102152.63;;;23.63;30.92
41513;BME280;27244;59.940;30.280;2023-11-21T11:38:09;102154.63;;;23.63;31.10
41513;BME280;27244;59.940;30.280;2023-11-21T11:40:39;102152.63;;;23.63;30.97
41513;BME280;27244;59.940;30.280;2023-11-21T11:43:07;102156.25;;;23.64;30.94
41513;BME280;27244;59.940;30.280;2023-11-21T11:45:35;102155.03;;;23.65;30.97
41513;BME280;27244;59.940;30.280;2023-11-21T11:48:06;102151.78;;;23.66;31.12
41513;BME280;27244;59.940;30.280;2023-11-21T11:50:42;102151.78;;;23.66;31.22
41513;BME280;27244;59.940;30.280;2023-11-21T11:53:14;102156.22;;;23.67;30.91
41513;BME280;27244;59.940;30.280;2023-11-21T11:55:41;102152.59;;;23.67;31.12
41513;BME280;27244;59.940;30.280;2023-11-21T11:58:10;102157.03;;;23.68;30.95
41513;BME280;27244;59.940;30.280;2023-11-21T12:00:41;102156.22;;;23.67;31.17
41513;BME280;27244;59.940;30.280;2023-11-21T12:03:10;102157.03;;;23.68;31.20
41513;BME280;27244;59.940;30.280;2023-11-21T12:05:37;102163.47;;;23.68;31.09
41513;BME280;27244;59.940;30.280;2023-11-21T12:08:06;102160.66;;;23.68;31.00
41513;BME280;27244;59.940;30.280;2023-11-21T12:10:36;102157.84;;;23.68;31.08
41513;BME280;27244;59.940;30.280;2023-11-21T12:13:05;102159.03;;;23.67;31.09
41513;BME280;27244;59.940;30.280;2023-11-21T12:15:34;102159.03;;;23.67;31.05
41513;BME280;27244;59.940;30.280;2023-11-21T12:18:02;102164.28;;;23.69;31.14
41513;BME280;27244;59.940;30.280;2023-11-21T12:20:30;102168.31;;;23.68;31.17
41513;BME280;27244;59.940;30.280;2023-11-21T12:22:57;102175.94;;;23.67;31.21
41513;BME280;27244;59.940;30.280;2023-11-21T12:25:25;102175.53;;;23.69;31.14
41513;BME280;27244;59.940;30.280;2023-11-21T12:27:54;102170.72;;;23.69;31.29
41513;BME280;27244;59.940;30.280;2023-11-21T12:30:21;102170.72;;;23.69;31.27
41513;BME280;27244;59.940;30.280;2023-11-21T12:32:49;102184.81;;;23.69;31.33
41513;BME280;27244;59.940;30.280;2023-11-21T12:35:18;102185.19;;;23.71;31.21
41513;BME280;27244;59.940;30.280;2023-11-21T12:37:46;102190.00;;;23.71;31.27
41513;BME280;27244;59.940;30.280;2023-11-21T12:40:22;102190.44;;;23.73;31.41
41513;BME280;27244;59.940;30.280;2023-11-21T12:42:52;102186.81;;;23.72;31.34
41513;BME280;27244;59.940;30.280;2023-11-21T12:45:19;102194.44;;;23.72;31.57